sensor_id;sensor_type;location;lat;lon;timestamp;P1;durP1;ratioP1;P2;durP2;ratioP2
22628;SDS011;11481;53.694;9.910;2022-10-18T00:00:44;19.00;;;6.00;;
22628;SDS011;11481;53.694;9.910;2022-10-18T00:03:12;13.50;;;5.32;;
22628;SDS011;11481;53.694;9.910;2022-10-18T00:05:38;12.00;;;5.40;;
22628;SDS011;11481;53.694;9.910;2022-10-18T00:08:05;15.35;;;6.15;;
22628;SDS011;11481;53.694;9.910;2022-10-18T00:10:31;11.15;;;4.30;;
22628;SDS011;11481;53.694;9.910;2022-10-18T00:12:58;14.13;;;5.22;;
22628;SDS011;11481;53.694;9.910;2022-10-18T00:15:24;12.85;;;5.53;;
22628;SDS011;11481;53.694;9.910;2022-10-18T00:17:52;16.80;;;5.55;;
22628;SDS011;11481;53.694;9.910;2022-10-18T00:20:18;10.82;;;4.55;;
22628;SDS011;11481;53.694;9.910;2022-10-18T00:22:45;15.77;;;6.18;;
22628;SDS011;11481;53.694;9.910;2022-10-18T00:25:12;13.75;;;5.78;;
22628;SDS011;11481;53.694;9.910;2022-10-18T00:27:38;16.65;;;5.97;;
22628;SDS011;11481;53.694;9.910;2022-10-18T00:30:05;14.88;;;5.82;;
22628;SDS011;11481;53.694;9.910;2022-10-18T00:32:36;11.13;;;5.32;;
22628;SDS011;11481;53.694;9.910;2022-10-18T00:35:04;15.00;;;6.03;;
22628;SDS011;11481;53.694;9.910;2022-10-18T00:37:32;16.00;;;6.57;;
22628;SDS011;11481;53.694;9.910;2022-10-18T00:39:59;15.80;;;5.90;;
22628;SDS011;11481;53.694;9.910;2022-10-18T00:42:31;16.48;;;5.95;;
22628;SDS011;11481;53.694;9.910;2022-10-18T00:45:05;15.30;;;6.28;;
22628;SDS011;11481;53.694;9.910;2022-10-18T00:47:40;16.23;;;5.97;;
22628;SDS011;11481;53.694;9.910;2022-10-18T00:50:10;15.23;;;5.45;;
22628;SDS011;11481;53.694;9.910;2022-10-18T00:52:37;20.23;;;6.20;;
22628;SDS011;11481;53.694;9.910;2022-10-18T00:55:11;16.48;;;6.13;;
22628;SDS011;11481;53.694;9.910;2022-10-18T00:57:38;14.85;;;6.20;;
22628;SDS011;11481;53.694;9.910;2022-10-18T01:00:07;13.18;;;5.90;;
22628;SDS011;11481;53.694;9.910;2022-10-18T01:02:35;21.73;;;6.78;;
22628;SDS011;11481;53.694;9.910;2022-10-18T01:05:03;18.15;;;6.82;;
22628;SDS011;11481;53.694;9.910;2022-10-18T01:07:36;13.65;;;5.70;;
22628;SDS011;11481;53.694;9.910;2022-10-18T01:13:02;18.80;;;6.72;;
22628;SDS011;11481;53.694;9.910;2022-10-18T01:16:02;19.50;;;6.53;;
22628;SDS011;11481;53.694;9.910;2022-10-18T01:24:12;15.85;;;6.65;;
22628;SDS011;11481;53.694;9.910;2022-10-18T01:27:46;14.82;;;5.00;;
22628;SDS011;11481;53.694;9.910;2022-10-18T01:33:06;19.95;;;6.88;;
22628;SDS011;11481;53.694;9.910;2022-10-18T01:35:40;16.83;;;6.20;;
22628;SDS011;11481;53.694;9.910;2022-10-18T01:38:12;18.08;;;6.95;;
22628;SDS011;11481;53.694;9.910;2022-10-18T01:40:43;15.88;;;6.65;;
22628;SDS011;11481;53.694;9.910;2022-10-18T01:43:12;17.30;;;5.57;;
22628;SDS011;11481;53.694;9.910;2022-10-18T01:45:41;18.17;;;6.30;;
22628;SDS011;11481;53.694;9.910;2022-10-18T01:48:08;17.98;;;6.80;;
22628;SDS011;11481;53.694;9.910;2022-10-18T01:50:36;17.50;;;7.20;;
22628;SDS011;11481;53.694;9.910;2022-10-18T01:53:04;17.33;;;6.93;;
22628;SDS011;11481;53.694;9.910;2022-10-18T01:55:33;18.27;;;6.35;;
22628;SDS011;11481;53.694;9.910;2022-10-18T01:58:19;17.25;;;7.15;;
22628;SDS011;11481;53.694;9.910;2022-10-18T02:01:00;20.85;;;7.60;;
22628;SDS011;11481;53.694;9.910;2022-10-18T02:03:33;18.27;;;6.97;;
22628;SDS011;11481;53.694;9.910;2022-10-18T02:06:26;19.42;;;6.88;;
22628;SDS011;11481;53.694;9.910;2022-10-18T02:08:58;21.55;;;7.13;;
22628;SDS011;11481;53.694;9.910;2022-10-18T02:11:36;19.38;;;7.15;;
22628;SDS011;11481;53.694;9.910;2022-10-18T02:14:08;19.15;;;6.32;;
22628;SDS011;11481;53.694;9.910;2022-10-18T02:16:41;19.90;;;7.15;;
22628;SDS011;11481;53.694;9.910;2022-10-18T02:19:12;15.40;;;6.47;;
22628;SDS011;11481;53.694;9.910;2022-10-18T02:21:40;14.75;;;6.05;;
22628;SDS011;11481;53.694;9.910;2022-10-18T02:24:10;19.58;;;7.53;;
22628;SDS011;11481;53.694;9.910;2022-10-18T02:26:39;14.55;;;5.85;;
22628;SDS011;11481;53.694;9.910;2022-10-18T02:29:06;19.05;;;6.68;;
22628;SDS011;11481;53.694;9.910;2022-10-18T02:31:35;13.93;;;6.00;;
22628;SDS011;11481;53.694;9.910;2022-10-18T02:34:16;21.25;;;7.28;;
22628;SDS011;11481;53.694;9.910;2022-10-18T02:36:57;13.52;;;5.97;;
22628;SDS011;11481;53.694;9.910;2022-10-18T02:39:27;17.95;;;6.80;;
22628;SDS011;11481;53.694;9.910;2022-10-18T02:41:59;22.92;;;7.25;;
22628;SDS011;11481;53.694;9.910;2022-10-18T02:44:25;21.33;;;7.00;;
22628;SDS011;11481;53.694;9.910;2022-10-18T02:46:52;17.05;;;7.38;;
22628;SDS011;11481;53.694;9.910;2022-10-18T02:49:19;16.65;;;7.00;;
22628;SDS011;11481;53.694;9.910;2022-10-18T02:51:46;19.15;;;7.05;;
22628;SDS011;11481;53.694;9.910;2022-10-18T02:54:12;16.00;;;6.53;;
22628;SDS011;11481;53.694;9.910;2022-10-18T02:56:39;18.08;;;6.75;;
22628;SDS011;11481;53.694;9.910;2022-10-18T02:59:05;17.55;;;7.53;;
22628;SDS011;11481;53.694;9.910;2022-10-18T03:01:33;22.83;;;6.60;;
22628;SDS011;11481;53.694;9.910;2022-10-18T03:04:01;22.40;;;7.22;;
22628;SDS011;11481;53.694;9.910;2022-10-18T03:06:28;16.23;;;6.13;;
22628;SDS011;11481;53.694;9.910;2022-10-18T03:08:55;18.98;;;6.20;;
22628;SDS011;11481;53.694;9.910;2022-10-18T03:11:21;14.90;;;6.50;;
22628;SDS011;11481;53.694;9.910;2022-10-18T03:13:48;14.65;;;5.45;;
22628;SDS011;11481;53.694;9.910;2022-10-18T03:16:16;18.42;;;7.53;;
22628;SDS011;11481;53.694;9.910;2022-10-18T03:18:43;20.40;;;6.15;;
22628;SDS011;11481;53.694;9.910;2022-10-18T03:21:10;23.40;;;8.13;;
22628;SDS011;11481;53.694;9.910;2022-10-18T03:23:36;21.38;;;7.95;;
22628;SDS011;11481;53.694;9.910;2022-10-18T03:26:03;18.55;;;6.97;;
22628;SDS011;11481;53.694;9.910;2022-10-18T03:28:30;23.60;;;6.75;;
22628;SDS011;11481;53.694;9.910;2022-10-18T03:31:00;20.17;;;6.93;;
22628;SDS011;11481;53.694;9.910;2022-10-18T03:33:28;21.05;;;8.00;;
22628;SDS011;11481;53.694;9.910;2022-10-18T03:35:56;21.23;;;7.80;;
22628;SDS011;11481;53.694;9.910;2022-10-18T03:38:22;23.15;;;7.68;;
22628;SDS011;11481;53.694;9.910;2022-10-18T03:40:49;20.35;;;8.18;;
22628;SDS011;11481;53.694;9.910;2022-10-18T03:43:16;20.40;;;7.68;;
22628;SDS011;11481;53.694;9.910;2022-10-18T03:45:42;22.60;;;7.85;;
22628;SDS011;11481;53.694;9.910;2022-10-18T03:48:09;24.55;;;8.68;;
22628;SDS011;11481;53.694;9.910;2022-10-18T03:50:36;19.10;;;6.93;;
22628;SDS011;11481;53.694;9.910;2022-10-18T03:53:03;21.48;;;7.00;;
22628;SDS011;11481;53.694;9.910;2022-10-18T03:55:29;20.30;;;6.68;;
22628;SDS011;11481;53.694;9.910;2022-10-18T03:57:56;25.00;;;8.02;;
22628;SDS011;11481;53.694;9.910;2022-10-18T04:00:23;24.80;;;7.13;;
22628;SDS011;11481;53.694;9.910;2022-10-18T04:02:49;20.60;;;7.00;;
22628;SDS011;11481;53.694;9.910;2022-10-18T04:05:20;21.10;;;6.88;;
22628;SDS011;11481;53.694;9.910;2022-10-18T04:07:49;21.05;;;6.43;;
22628;SDS011;11481;53.694;9.910;2022-10-18T04:10:15;16.58;;;7.32;;
22628;SDS011;11481;53.694;9.910;2022-10-18T04:12:43;21.23;;;7.07;;
22628;SDS011;11481;53.694;9.910;2022-10-18T04:15:10;18.85;;;6.82;;
22628;SDS011;11481;53.694;9.910;2022-10-18T04:17:36;24.95;;;8.48;;
22628;SDS011;11481;53.694;9.910;2022-10-18T04:20:03;24.27;;;8.80;;
22628;SDS011;11481;53.694;9.910;2022-10-18T04:22:30;18.25;;;7.13;;
22628;SDS011;11481;53.694;9.910;2022-10-18T04:24:57;19.98;;;6.32;;
22628;SDS011;11481;53.694;9.910;2022-10-18T04:27:23;19.58;;;7.25;;
22628;SDS011;11481;53.694;9.910;2022-10-18T04:29:50;23.10;;;7.25;;
22628;SDS011;11481;53.694;9.910;2022-10-18T04:32:17;20.60;;;7.93;;
22628;SDS011;11481;53.694;9.910;2022-10-18T04:34:43;19.88;;;6.57;;
22628;SDS011;11481;53.694;9.910;2022-10-18T04:37:10;18.02;;;6.75;;
22628;SDS011;11481;53.694;9.910;2022-10-18T04:39:36;21.73;;;7.60;;
22628;SDS011;11481;53.694;9.910;2022-10-18T04:42:03;17.88;;;6.57;;
22628;SDS011;11481;53.694;9.910;2022-10-18T04:44:29;16.13;;;6.95;;
22628;SDS011;11481;53.694;9.910;2022-10-18T04:46:56;15.05;;;6.88;;
22628;SDS011;11481;53.694;9.910;2022-10-18T04:49:22;18.98;;;7.07;;
22628;SDS011;11481;53.694;9.910;2022-10-18T04:51:49;20.88;;;7.78;;
22628;SDS011;11481;53.694;9.910;2022-10-18T04:54:16;15.43;;;6.25;;
22628;SDS011;11481;53.694;9.910;2022-10-18T04:56:42;18.08;;;7.20;;
22628;SDS011;11481;53.694;9.910;2022-10-18T04:59:09;18.70;;;7.32;;
22628;SDS011;11481;53.694;9.910;2022-10-18T05:01:35;16.10;;;6.32;;
22628;SDS011;11481;53.694;9.910;2022-10-18T05:04:02;14.63;;;5.47;;
22628;SDS011;11481;53.694;9.910;2022-10-18T05:06:29;15.45;;;6.75;;
22628;SDS011;11481;53.694;9.910;2022-10-18T05:08:55;20.00;;;7.15;;
22628;SDS011;11481;53.694;9.910;2022-10-18T05:11:22;18.70;;;7.22;;
22628;SDS011;11481;53.694;9.910;2022-10-18T05:13:48;21.48;;;7.38;;
22628;SDS011;11481;53.694;9.910;2022-10-18T05:16:16;22.50;;;7.97;;
22628;SDS011;11481;53.694;9.910;2022-10-18T05:18:43;24.00;;;8.52;;
22628;SDS011;11481;53.694;9.910;2022-10-18T05:21:09;23.65;;;8.27;;
22628;SDS011;11481;53.694;9.910;2022-10-18T05:23:37;21.15;;;9.75;;
22628;SDS011;11481;53.694;9.910;2022-10-18T05:26:28;28.27;;;7.15;;
22628;SDS011;11481;53.694;9.910;2022-10-18T05:28:55;28.38;;;8.77;;
22628;SDS011;11481;53.694;9.910;2022-10-18T05:31:23;23.40;;;7.93;;
22628;SDS011;11481;53.694;9.910;2022-10-18T05:33:49;24.65;;;7.88;;
22628;SDS011;11481;53.694;9.910;2022-10-18T05:36:16;29.20;;;8.40;;
22628;SDS011;11481;53.694;9.910;2022-10-18T05:38:43;24.70;;;7.03;;
22628;SDS011;11481;53.694;9.910;2022-10-18T05:41:10;23.13;;;7.38;;
22628;SDS011;11481;53.694;9.910;2022-10-18T05:43:38;22.02;;;7.53;;
22628;SDS011;11481;53.694;9.910;2022-10-18T05:46:05;22.05;;;6.57;;
22628;SDS011;11481;53.694;9.910;2022-10-18T05:48:40;18.95;;;7.82;;
22628;SDS011;11481;53.694;9.910;2022-10-18T05:51:08;25.38;;;7.95;;
22628;SDS011;11481;53.694;9.910;2022-10-18T05:53:35;20.33;;;7.65;;
22628;SDS011;11481;53.694;9.910;2022-10-18T05:56:03;27.13;;;8.35;;
22628;SDS011;11481;53.694;9.910;2022-10-18T05:58:30;27.88;;;7.85;;
22628;SDS011;11481;53.694;9.910;2022-10-18T06:01:00;19.73;;;6.82;;
22628;SDS011;11481;53.694;9.910;2022-10-18T06:03:27;17.15;;;6.32;;
22628;SDS011;11481;53.694;9.910;2022-10-18T06:05:59;21.42;;;7.72;;
22628;SDS011;11481;53.694;9.910;2022-10-18T06:08:27;23.35;;;7.72;;
22628;SDS011;11481;53.694;9.910;2022-10-18T06:10:54;22.48;;;7.53;;
22628;SDS011;11481;53.694;9.910;2022-10-18T06:13:21;24.55;;;8.30;;
22628;SDS011;11481;53.694;9.910;2022-10-18T06:15:47;21.55;;;7.30;;
22628;SDS011;11481;53.694;9.910;2022-10-18T06:18:14;21.90;;;6.53;;
22628;SDS011;11481;53.694;9.910;2022-10-18T06:20:41;31.30;;;8.68;;
22628;SDS011;11481;53.694;9.910;2022-10-18T06:23:07;26.20;;;7.32;;
22628;SDS011;11481;53.694;9.910;2022-10-18T06:25:34;20.70;;;7.57;;
22628;SDS011;11481;53.694;9.910;2022-10-18T06:28:02;22.70;;;7.97;;
22628;SDS011;11481;53.694;9.910;2022-10-18T06:30:35;24.08;;;7.57;;
22628;SDS011;11481;53.694;9.910;2022-10-18T06:33:02;23.75;;;7.25;;
22628;SDS011;11481;53.694;9.910;2022-10-18T06:35:28;27.33;;;7.85;;
22628;SDS011;11481;53.694;9.910;2022-10-18T06:37:55;30.02;;;7.57;;
22628;SDS011;11481;53.694;9.910;2022-10-18T06:40:22;21.50;;;7.85;;
22628;SDS011;11481;53.694;9.910;2022-10-18T06:42:49;22.45;;;7.50;;
22628;SDS011;11481;53.694;9.910;2022-10-18T06:45:25;26.35;;;7.30;;
22628;SDS011;11481;53.694;9.910;2022-10-18T06:47:52;22.42;;;7.10;;
22628;SDS011;11481;53.694;9.910;2022-10-18T06:50:18;23.27;;;8.00;;
22628;SDS011;11481;53.694;9.910;2022-10-18T06:52:45;25.52;;;8.50;;
22628;SDS011;11481;53.694;9.910;2022-10-18T06:55:14;25.27;;;8.00;;
22628;SDS011;11481;53.694;9.910;2022-10-18T06:57:41;26.50;;;7.45;;
22628;SDS011;11481;53.694;9.910;2022-10-18T07:00:07;22.83;;;7.00;;
22628;SDS011;11481;53.694;9.910;2022-10-18T07:02:34;28.50;;;8.57;;
22628;SDS011;11481;53.694;9.910;2022-10-18T07:05:02;23.50;;;7.72;;
22628;SDS011;11481;53.694;9.910;2022-10-18T07:07:29;21.02;;;6.47;;
22628;SDS011;11481;53.694;9.910;2022-10-18T07:09:57;24.45;;;7.28;;
22628;SDS011;11481;53.694;9.910;2022-10-18T07:12:24;20.45;;;6.70;;
22628;SDS011;11481;53.694;9.910;2022-10-18T07:14:50;22.80;;;7.38;;
22628;SDS011;11481;53.694;9.910;2022-10-18T07:17:17;26.55;;;7.47;;
22628;SDS011;11481;53.694;9.910;2022-10-18T07:19:43;23.85;;;7.35;;
22628;SDS011;11481;53.694;9.910;2022-10-18T07:22:10;27.70;;;6.75;;
22628;SDS011;11481;53.694;9.910;2022-10-18T07:24:36;24.13;;;6.82;;
22628;SDS011;11481;53.694;9.910;2022-10-18T07:27:03;23.67;;;6.88;;
22628;SDS011;11481;53.694;9.910;2022-10-18T07:29:30;24.80;;;6.28;;
22628;SDS011;11481;53.694;9.910;2022-10-18T07:31:57;18.90;;;6.97;;
22628;SDS011;11481;53.694;9.910;2022-10-18T07:34:23;21.60;;;7.18;;
22628;SDS011;11481;53.694;9.910;2022-10-18T07:36:50;23.42;;;8.15;;
22628;SDS011;11481;53.694;9.910;2022-10-18T07:39:16;22.98;;;7.60;;
22628;SDS011;11481;53.694;9.910;2022-10-18T07:41:43;24.45;;;7.30;;
22628;SDS011;11481;53.694;9.910;2022-10-18T07:44:09;18.60;;;7.03;;
22628;SDS011;11481;53.694;9.910;2022-10-18T07:46:36;21.20;;;6.38;;
22628;SDS011;11481;53.694;9.910;2022-10-18T07:49:03;23.25;;;7.90;;
22628;SDS011;11481;53.694;9.910;2022-10-18T07:51:29;20.00;;;6.88;;
22628;SDS011;11481;53.694;9.910;2022-10-18T07:53:58;20.52;;;6.97;;
22628;SDS011;11481;53.694;9.910;2022-10-18T07:56:24;19.90;;;6.53;;
22628;SDS011;11481;53.694;9.910;2022-10-18T07:58:52;22.55;;;6.80;;
22628;SDS011;11481;53.694;9.910;2022-10-18T08:01:21;20.40;;;6.28;;
22628;SDS011;11481;53.694;9.910;2022-10-18T08:03:53;18.70;;;6.25;;
22628;SDS011;11481;53.694;9.910;2022-10-18T08:06:20;22.55;;;5.78;;
22628;SDS011;11481;53.694;9.910;2022-10-18T08:08:48;22.88;;;6.45;;
22628;SDS011;11481;53.694;9.910;2022-10-18T08:11:16;17.02;;;6.43;;
22628;SDS011;11481;53.694;9.910;2022-10-18T08:13:44;21.17;;;5.97;;
22628;SDS011;11481;53.694;9.910;2022-10-18T08:16:12;26.48;;;6.32;;
22628;SDS011;11481;53.694;9.910;2022-10-18T08:18:42;22.00;;;7.20;;
22628;SDS011;11481;53.694;9.910;2022-10-18T08:21:09;22.83;;;6.82;;
22628;SDS011;11481;53.694;9.910;2022-10-18T08:23:37;28.58;;;7.50;;
22628;SDS011;11481;53.694;9.910;2022-10-18T08:26:05;24.52;;;7.28;;
22628;SDS011;11481;53.694;9.910;2022-10-18T08:28:34;23.63;;;7.18;;
22628;SDS011;11481;53.694;9.910;2022-10-18T08:31:05;16.85;;;6.20;;
22628;SDS011;11481;53.694;9.910;2022-10-18T08:33:33;20.67;;;6.50;;
22628;SDS011;11481;53.694;9.910;2022-10-18T08:36:01;20.40;;;6.38;;
22628;SDS011;11481;53.694;9.910;2022-10-18T08:38:36;20.33;;;6.10;;
22628;SDS011;11481;53.694;9.910;2022-10-18T08:44:06;19.83;;;6.03;;
22628;SDS011;11481;53.694;9.910;2022-10-18T08:46:40;24.90;;;6.60;;
22628;SDS011;11481;53.694;9.910;2022-10-18T08:49:15;17.00;;;6.80;;
22628;SDS011;11481;53.694;9.910;2022-10-18T08:51:51;23.75;;;8.18;;
22628;SDS011;11481;53.694;9.910;2022-10-18T08:54:36;23.15;;;6.97;;
22628;SDS011;11481;53.694;9.910;2022-10-18T08:57:11;21.52;;;6.68;;
22628;SDS011;11481;53.694;9.910;2022-10-18T08:59:40;20.23;;;7.63;;
22628;SDS011;11481;53.694;9.910;2022-10-18T09:10:59;16.67;;;5.60;;
22628;SDS011;11481;53.694;9.910;2022-10-18T09:16:18;23.23;;;6.80;;
22628;SDS011;11481;53.694;9.910;2022-10-18T09:18:55;20.65;;;6.22;;
22628;SDS011;11481;53.694;9.910;2022-10-18T09:21:40;27.35;;;5.70;;
22628;SDS011;11481;53.694;9.910;2022-10-18T09:24:29;20.23;;;5.32;;
22628;SDS011;11481;53.694;9.910;2022-10-18T09:27:16;17.50;;;5.60;;
22628;SDS011;11481;53.694;9.910;2022-10-18T09:32:30;13.60;;;5.07;;
22628;SDS011;11481;53.694;9.910;2022-10-18T09:37:46;14.90;;;5.32;;
22628;SDS011;11481;53.694;9.910;2022-10-18T09:40:16;17.83;;;5.07;;
22628;SDS011;11481;53.694;9.910;2022-10-18T09:42:57;15.70;;;4.82;;
22628;SDS011;11481;53.694;9.910;2022-10-18T09:45:44;14.27;;;5.32;;
22628;SDS011;11481;53.694;9.910;2022-10-18T09:53:44;19.90;;;5.72;;
22628;SDS011;11481;53.694;9.910;2022-10-18T09:56:29;14.68;;;6.18;;
22628;SDS011;11481;53.694;9.910;2022-10-18T09:59:10;15.05;;;5.57;;
22628;SDS011;11481;53.694;9.910;2022-10-18T10:01:56;10.02;;;4.38;;
22628;SDS011;11481;53.694;9.910;2022-10-18T10:04:23;17.02;;;5.68;;
22628;SDS011;11481;53.694;9.910;2022-10-18T10:06:50;15.07;;;4.00;;
22628;SDS011;11481;53.694;9.910;2022-10-18T10:09:54;16.70;;;4.97;;
22628;SDS011;11481;53.694;9.910;2022-10-18T10:12:28;23.13;;;5.25;;
22628;SDS011;11481;53.694;9.910;2022-10-18T10:15:17;18.08;;;5.43;;
22628;SDS011;11481;53.694;9.910;2022-10-18T10:20:57;17.05;;;5.53;;
22628;SDS011;11481;53.694;9.910;2022-10-18T10:25:55;15.52;;;5.35;;
22628;SDS011;11481;53.694;9.910;2022-10-18T10:28:44;18.17;;;4.75;;
22628;SDS011;11481;53.694;9.910;2022-10-18T10:31:18;12.10;;;4.22;;
22628;SDS011;11481;53.694;9.910;2022-10-18T10:36:45;14.05;;;5.13;;
22628;SDS011;11481;53.694;9.910;2022-10-18T10:39:15;18.30;;;6.10;;
22628;SDS011;11481;53.694;9.910;2022-10-18T10:42:04;18.00;;;5.90;;
22628;SDS011;11481;53.694;9.910;2022-10-18T10:44:35;18.15;;;5.15;;
22628;SDS011;11481;53.694;9.910;2022-10-18T10:47:02;18.95;;;5.18;;
22628;SDS011;11481;53.694;9.910;2022-10-18T10:49:42;21.35;;;4.53;;
22628;SDS011;11481;53.694;9.910;2022-10-18T10:52:20;15.90;;;5.20;;
22628;SDS011;11481;53.694;9.910;2022-10-18T10:55:01;9.15;;;4.18;;
22628;SDS011;11481;53.694;9.910;2022-10-18T10:57:48;12.23;;;5.10;;
22628;SDS011;11481;53.694;9.910;2022-10-18T11:03:12;10.45;;;4.15;;
22628;SDS011;11481;53.694;9.910;2022-10-18T11:05:54;12.30;;;4.05;;
22628;SDS011;11481;53.694;9.910;2022-10-18T11:08:24;10.95;;;4.60;;
22628;SDS011;11481;53.694;9.910;2022-10-18T11:11:14;14.93;;;5.45;;
22628;SDS011;11481;53.694;9.910;2022-10-18T11:13:49;14.48;;;4.10;;
22628;SDS011;11481;53.694;9.910;2022-10-18T11:22:33;12.82;;;4.38;;
22628;SDS011;11481;53.694;9.910;2022-10-18T11:25:12;9.75;;;3.60;;
22628;SDS011;11481;53.694;9.910;2022-10-18T11:27:43;14.55;;;3.55;;
22628;SDS011;11481;53.694;9.910;2022-10-18T11:30:30;12.73;;;3.55;;
22628;SDS011;11481;53.694;9.910;2022-10-18T11:36:06;17.45;;;4.68;;
22628;SDS011;11481;53.694;9.910;2022-10-18T11:41:27;13.10;;;3.08;;
22628;SDS011;11481;53.694;9.910;2022-10-18T11:44:40;6.15;;;2.53;;
22628;SDS011;11481;53.694;9.910;2022-10-18T11:53:08;9.02;;;1.90;;
22628;SDS011;11481;53.694;9.910;2022-10-18T12:03:32;5.95;;;1.00;;
22628;SDS011;11481;53.694;9.910;2022-10-18T12:06:11;3.75;;;1.00;;
22628;SDS011;11481;53.694;9.910;2022-10-18T12:08:43;3.97;;;1.33;;
22628;SDS011;11481;53.694;9.910;2022-10-18T12:11:14;6.70;;;1.10;;
22628;SDS011;11481;53.694;9.910;2022-10-18T12:14:03;9.20;;;1.58;;
22628;SDS011;11481;53.694;9.910;2022-10-18T12:16:47;8.00;;;1.20;;
22628;SDS011;11481;53.694;9.910;2022-10-18T12:19:27;4.32;;;1.25;;
22628;SDS011;11481;53.694;9.910;2022-10-18T12:21:56;5.00;;;0.95;;
22628;SDS011;11481;53.694;9.910;2022-10-18T12:24:35;6.93;;;0.70;;
22628;SDS011;11481;53.694;9.910;2022-10-18T12:27:02;2.83;;;0.85;;
22628;SDS011;11481;53.694;9.910;2022-10-18T12:29:38;6.22;;;1.13;;
22628;SDS011;11481;53.694;9.910;2022-10-18T12:32:26;4.43;;;0.73;;
22628;SDS011;11481;53.694;9.910;2022-10-18T12:34:58;4.82;;;1.15;;
22628;SDS011;11481;53.694;9.910;2022-10-18T12:37:35;6.03;;;1.27;;
22628;SDS011;11481;53.694;9.910;2022-10-18T12:40:17;7.72;;;0.68;;
22628;SDS011;11481;53.694;9.910;2022-10-18T12:42:49;8.35;;;1.27;;
22628;SDS011;11481;53.694;9.910;2022-10-18T12:47:50;4.63;;;1.13;;
22628;SDS011;11481;53.694;9.910;2022-10-18T12:55:32;3.50;;;0.65;;
22628;SDS011;11481;53.694;9.910;2022-10-18T13:08:31;1.83;;;0.57;;
22628;SDS011;11481;53.694;9.910;2022-10-18T13:16:22;6.43;;;1.25;;
22628;SDS011;11481;53.694;9.910;2022-10-18T13:21:55;9.10;;;1.20;;
22628;SDS011;11481;53.694;9.910;2022-10-18T13:27:36;7.53;;;1.17;;
22628;SDS011;11481;53.694;9.910;2022-10-18T13:30:19;2.47;;;0.75;;
22628;SDS011;11481;53.694;9.910;2022-10-18T13:33:17;6.75;;;0.95;;
22628;SDS011;11481;53.694;9.910;2022-10-18T13:52:18;2.75;;;1.02;;
22628;SDS011;11481;53.694;9.910;2022-10-18T13:57:43;2.88;;;0.73;;
22628;SDS011;11481;53.694;9.910;2022-10-18T14:06:24;4.38;;;0.50;;
22628;SDS011;11481;53.694;9.910;2022-10-18T14:09:01;1.85;;;0.45;;
22628;SDS011;11481;53.694;9.910;2022-10-18T14:12:15;3.40;;;0.60;;
22628;SDS011;11481;53.694;9.910;2022-10-18T14:23:09;5.13;;;0.52;;
22628;SDS011;11481;53.694;9.910;2022-10-18T14:25:42;6.55;;;0.98;;
22628;SDS011;11481;53.694;9.910;2022-10-18T14:28:13;3.45;;;1.02;;
22628;SDS011;11481;53.694;9.910;2022-10-18T14:30:52;7.00;;;0.50;;
22628;SDS011;11481;53.694;9.910;2022-10-18T14:33:42;4.03;;;0.68;;
22628;SDS011;11481;53.694;9.910;2022-10-18T14:38:49;4.35;;;0.90;;
22628;SDS011;11481;53.694;9.910;2022-10-18T14:41:24;3.20;;;0.65;;
22628;SDS011;11481;53.694;9.910;2022-10-18T14:43:55;5.60;;;1.02;;
22628;SDS011;11481;53.694;9.910;2022-10-18T14:46:45;5.93;;;0.98;;
22628;SDS011;11481;53.694;9.910;2022-10-18T14:49:25;10.07;;;0.70;;
22628;SDS011;11481;53.694;9.910;2022-10-18T14:51:54;8.43;;;0.93;;
22628;SDS011;11481;53.694;9.910;2022-10-18T14:54:24;4.82;;;0.68;;
22628;SDS011;11481;53.694;9.910;2022-10-18T14:57:01;3.53;;;0.82;;
22628;SDS011;11481;53.694;9.910;2022-10-18T14:59:31;4.07;;;0.95;;
22628;SDS011;11481;53.694;9.910;2022-10-18T15:02:12;6.53;;;1.23;;
22628;SDS011;11481;53.694;9.910;2022-10-18T15:04:43;5.75;;;0.60;;
22628;SDS011;11481;53.694;9.910;2022-10-18T15:07:16;2.35;;;1.10;;
22628;SDS011;11481;53.694;9.910;2022-10-18T15:09:43;2.85;;;0.57;;
22628;SDS011;11481;53.694;9.910;2022-10-18T15:12:13;5.35;;;0.90;;
22628;SDS011;11481;53.694;9.910;2022-10-18T15:14:40;1.20;;;0.68;;
22628;SDS011;11481;53.694;9.910;2022-10-18T15:17:13;4.75;;;0.43;;
22628;SDS011;11481;53.694;9.910;2022-10-18T15:19:56;3.13;;;0.90;;
22628;SDS011;11481;53.694;9.910;2022-10-18T15:22:29;10.70;;;1.13;;
22628;SDS011;11481;53.694;9.910;2022-10-18T15:27:31;4.30;;;0.63;;
22628;SDS011;11481;53.694;9.910;2022-10-18T15:30:13;5.72;;;0.93;;
22628;SDS011;11481;53.694;9.910;2022-10-18T15:32:47;3.75;;;0.80;;
22628;SDS011;11481;53.694;9.910;2022-10-18T15:35:32;9.52;;;1.45;;
22628;SDS011;11481;53.694;9.910;2022-10-18T15:38:01;8.05;;;1.35;;
22628;SDS011;11481;53.694;9.910;2022-10-18T15:40:40;1.42;;;0.50;;
22628;SDS011;11481;53.694;9.910;2022-10-18T15:45:50;3.55;;;0.60;;
22628;SDS011;11481;53.694;9.910;2022-10-18T15:48:33;6.35;;;0.80;;
22628;SDS011;11481;53.694;9.910;2022-10-18T15:51:02;3.10;;;0.75;;
22628;SDS011;11481;53.694;9.910;2022-10-18T15:53:52;1.13;;;0.50;;
22628;SDS011;11481;53.694;9.910;2022-10-18T15:56:27;7.20;;;0.90;;
22628;SDS011;11481;53.694;9.910;2022-10-18T15:59:04;4.63;;;0.70;;
22628;SDS011;11481;53.694;9.910;2022-10-18T16:01:46;5.93;;;0.80;;
22628;SDS011;11481;53.694;9.910;2022-10-18T16:04:23;5.00;;;0.52;;
22628;SDS011;11481;53.694;9.910;2022-10-18T16:06:51;4.00;;;0.70;;
22628;SDS011;11481;53.694;9.910;2022-10-18T16:09:21;4.53;;;0.88;;
22628;SDS011;11481;53.694;9.910;2022-10-18T16:11:49;3.17;;;1.08;;
22628;SDS011;11481;53.694;9.910;2022-10-18T16:14:22;5.70;;;0.60;;
22628;SDS011;11481;53.694;9.910;2022-10-18T16:16:50;4.53;;;1.08;;
22628;SDS011;11481;53.694;9.910;2022-10-18T16:19:20;2.42;;;0.63;;
22628;SDS011;11481;53.694;9.910;2022-10-18T16:21:47;7.30;;;0.70;;
22628;SDS011;11481;53.694;9.910;2022-10-18T16:24:15;2.97;;;0.70;;
22628;SDS011;11481;53.694;9.910;2022-10-18T16:26:42;4.47;;;0.60;;
22628;SDS011;11481;53.694;9.910;2022-10-18T16:29:18;3.00;;;0.73;;
22628;SDS011;11481;53.694;9.910;2022-10-18T16:31:49;1.65;;;0.52;;
22628;SDS011;11481;53.694;9.910;2022-10-18T16:34:18;6.35;;;0.80;;
22628;SDS011;11481;53.694;9.910;2022-10-18T16:36:44;2.60;;;0.50;;
22628;SDS011;11481;53.694;9.910;2022-10-18T16:39:13;9.25;;;1.15;;
22628;SDS011;11481;53.694;9.910;2022-10-18T16:41:45;5.95;;;0.85;;
22628;SDS011;11481;53.694;9.910;2022-10-18T16:44:12;3.58;;;0.95;;
22628;SDS011;11481;53.694;9.910;2022-10-18T16:46:39;7.82;;;0.90;;
22628;SDS011;11481;53.694;9.910;2022-10-18T16:49:06;8.32;;;0.80;;
22628;SDS011;11481;53.694;9.910;2022-10-18T16:51:42;2.85;;;0.65;;
22628;SDS011;11481;53.694;9.910;2022-10-18T16:54:08;1.88;;;1.02;;
22628;SDS011;11481;53.694;9.910;2022-10-18T16:56:35;3.55;;;1.00;;
22628;SDS011;11481;53.694;9.910;2022-10-18T16:59:01;7.38;;;1.05;;
22628;SDS011;11481;53.694;9.910;2022-10-18T17:01:29;7.72;;;0.90;;
22628;SDS011;11481;53.694;9.910;2022-10-18T17:03:55;1.90;;;0.90;;
22628;SDS011;11481;53.694;9.910;2022-10-18T17:08:48;1.77;;;0.60;;
22628;SDS011;11481;53.694;9.910;2022-10-18T17:11:16;4.03;;;0.80;;
22628;SDS011;11481;53.694;9.910;2022-10-18T17:13:44;3.65;;;1.20;;
22628;SDS011;11481;53.694;9.910;2022-10-18T17:16:18;5.53;;;1.10;;
22628;SDS011;11481;53.694;9.910;2022-10-18T17:18:54;3.53;;;1.20;;
22628;SDS011;11481;53.694;9.910;2022-10-18T17:21:23;8.23;;;0.95;;
22628;SDS011;11481;53.694;9.910;2022-10-18T17:23:50;12.52;;;1.55;;
22628;SDS011;11481;53.694;9.910;2022-10-18T17:26:19;6.70;;;1.63;;
22628;SDS011;11481;53.694;9.910;2022-10-18T17:28:59;7.20;;;1.30;;
22628;SDS011;11481;53.694;9.910;2022-10-18T17:31:29;5.88;;;0.60;;